Time;durP1;ratioP1;P1;durP2;ratioP2;P2;SDS_P1;SDS_P2;PMS_P1;PMS_P2;Temp;Humidity;BMP_temperature;BMP_pressure;BME280_temperature;BME280_humidity;BME280_pressure;Samples;Min_cycle;Max_cycle;Signal;HPM_P1;HPM_P2
2021/08/02 00:00:06;;;;;;;3.17;2.97;;;;;;;17.18;71.91;100377.13;681900;28;107375;-61
2021/08/02 00:00:43;;;;;;;3.40;3.10;;;;;;;17.18;71.73;100374.41;682439;28;80897;-61
2021/08/02 00:01:07;;;;;;;3.10;2.90;;;;;;;17.17;71.99;100371.91;680308;28;137920;-60
2021/08/02 00:01:30;;;;;;;3.20;3.00;;;;;;;17.16;71.96;100373.78;683184;28;58158;-61
2021/08/02 00:01:53;;;;;;;3.50;3.20;;;;;;;17.15;71.67;100372.13;682747;28;67451;-62
2021/08/02 00:02:22;;;;;;;3.17;2.97;;;;;;;17.14;71.82;100367.72;683485;28;64309;-61
2021/08/02 00:02:54;;;;;;;3.78;3.10;;;;;;;17.13;71.87;100374.22;680663;28;137724;-61
2021/08/02 00:03:19;;;;;;;3.50;3.00;;;;;;;17.11;71.87;100379.09;680894;28;128239;-62
2021/08/02 00:03:46;;;;;;;3.47;3.28;;;;;;;17.10;71.78;100366.53;679647;28;115938;-61
2021/08/02 00:04:10;;;;;;;3.33;3.13;;;;;;;17.11;71.92;100376.38;679244;28;138130;-61
2021/08/02 00:04:38;;;;;;;3.20;2.90;;;;;;;17.10;71.96;100372.00;680873;28;69292;-61
2021/08/02 00:05:02;;;;;;;3.40;3.10;;;;;;;17.09;71.93;100373.03;678424;28;161095;-61
2021/08/02 00:05:23;;;;;;;4.05;3.20;;;;;;;17.09;71.84;100373.88;679794;28;116292;-61
2021/08/02 00:05:48;;;;;;;3.40;2.95;;;;;;;17.07;71.79;100376.00;684003;28;30649;-62
2021/08/02 00:06:09;;;;;;;3.85;2.85;;;;;;;17.06;72.14;100370.78;683724;28;115069;-61
2021/08/02 00:06:38;;;;;;;4.32;3.28;;;;;;;17.04;71.99;100371.00;687491;28;5360;-62
2021/08/02 00:07:04;;;;;;;5.00;3.27;;;;;;;17.04;72.13;100370.19;683490;28;133700;-62
2021/08/02 00:07:27;;;;;;;3.38;3.10;;;;;;;17.02;71.97;100370.41;682904;28;137380;-61
2021/08/02 00:07:52;;;;;;;3.03;2.85;;;;;;;17.01;71.98;100382.38;685422;28;63743;-62
2021/08/02 00:08:21;;;;;;;3.33;3.03;;;;;;;16.99;72.22;100375.47;680655;28;138084;-61
2021/08/02 00:08:42;;;;;;;3.30;3.10;;;;;;;16.97;72.15;100381.16;680885;28;129695;-62
2021/08/02 00:09:05;;;;;;;3.55;3.25;;;;;;;16.97;72.03;100381.16;685045;28;10402;-62
2021/08/02 00:09:33;;;;;;;3.38;3.13;;;;;;;16.96;72.17;100379.50;683212;28;59438;-62
2021/08/02 00:09:56;;;;;;;3.42;3.13;;;;;;;16.96;72.27;100378.66;682324;28;70213;-62
2021/08/02 00:10:19;;;;;;;3.38;3.08;;;;;;;16.96;72.10;100381.38;683084;28;61118;-62
2021/08/02 00:10:40;;;;;;;3.40;3.20;;;;;;;16.95;72.10;100379.72;683084;28;70381;-62
2021/08/02 00:11:01;;;;;;;3.60;3.30;;;;;;;16.95;72.37;100383.28;684704;28;23497;-62
2021/08/02 00:11:29;;;;;;;3.50;3.20;;;;;;;16.95;72.17;100379.72;684639;28;1727;-62
2021/08/02 00:11:55;;;;;;;3.57;3.27;;;;;;;16.96;72.34;100375.94;680779;28;139569;-62
2021/08/02 00:12:17;;;;;;;3.60;3.30;;;;;;;16.95;72.21;100379.72;680215;28;147196;-62
2021/08/02 00:12:41;;;;;;;3.65;3.35;;;;;;;16.94;72.03;100376.16;684034;28;43224;-62
2021/08/02 00:13:10;;;;;;;3.73;3.43;;;;;;;16.93;72.37;100383.50;680596;28;113149;-62
2021/08/02 00:13:32;;;;;;;3.65;3.35;;;;;;;16.92;72.32;100379.09;681217;28;122334;-62
2021/08/02 00:13:53;;;;;;;3.70;3.40;;;;;;;16.91;72.26;100376.59;683797;28;42580;-62
2021/08/02 00:14:14;;;;;;;3.95;3.60;;;;;;;16.91;72.31;100377.47;684312;28;22409;-62
2021/08/02 00:14:36;;;;;;;3.90;3.60;;;;;;;16.89;72.32;100379.56;684328;28;20961;-62
2021/08/02 00:15:00;;;;;;;3.30;3.10;;;;;;;16.88;72.38;100377.91;683524;28;46364;-62
2021/08/02 00:15:21;;;;;;;4.05;3.35;;;;;;;16.87;72.41;100381.69;682010;28;93169;-62
2021/08/02 00:15:44;;;;;;;3.60;3.30;;;;;;;16.86;72.53;100380.00;685578;28;1047;-62
2021/08/02 00:16:07;;;;;;;3.60;3.30;;;;;;;16.86;72.58;100380.00;686658;28;38574;-62
2021/08/02 00:16:28;;;;;;;3.75;3.42;;;;;;;16.86;72.64;100373.72;685978;28;46379;-62
2021/08/02 00:16:51;;;;;;;3.63;3.33;;;;;;;16.85;72.77;100380.22;687326;28;17650;-62
2021/08/02 00:17:12;;;;;;;3.97;3.33;;;;;;;16.84;72.69;100379.38;684067;28;69442;-62
2021/08/02 00:17:33;;;;;;;3.67;3.40;;;;;;;16.83;72.65;100376.88;684294;28;21538;-62
2021/08/02 00:17:56;;;;;;;4.45;3.80;;;;;;;16.83;72.85;100382.34;685064;28;1317;-61
2021/08/02 00:18:19;;;;;;;5.65;4.22;;;;;;;16.83;72.67;100385.06;683786;28;46558;-62
2021/08/02 00:18:41;;;;;;;3.60;3.30;;;;;;;16.83;72.76;100383.16;683046;28;69560;-62
2021/08/02 00:19:03;;;;;;;3.40;3.20;;;;;;;16.83;72.81;100379.63;684423;28;36059;-62
2021/08/02 00:19:25;;;;;;;3.42;3.22;;;;;;;16.82;72.82;100378.78;683829;28;46369;-62
2021/08/02 00:19:46;;;;;;;3.72;3.42;;;;;;;16.81;72.88;100374.38;683552;28;45962;-62
2021/08/02 00:20:11;;;;;;;3.65;3.35;;;;;;;16.82;72.81;100381.53;684288;28;23445;-61
2021/08/02 00:20:34;;;;;;;3.78;3.45;;;;;;;16.82;72.68;100384.25;681460;28;115235;-62
2021/08/02 00:20:57;;;;;;;3.80;3.40;;;;;;;16.80;73.03;100380.88;681703;28;90960;-62
2021/08/02 00:21:18;;;;;;;3.70;3.40;;;;;;;16.81;72.70;100376.28;681878;28;67224;-62
2021/08/02 00:21:40;;;;;;;3.53;3.30;;;;;;;16.80;72.91;100380.06;684305;28;22408;-62
2021/08/02 00:22:03;;;;;;;3.60;3.30;;;;;;;16.80;73.01;100388.25;683927;28;46315;-61
2021/08/02 00:22:24;;;;;;;3.65;3.35;;;;;;;16.78;73.02;100376.75;682804;28;66818;-62
2021/08/02 00:22:45;;;;;;;3.40;3.15;;;;;;;16.75;73.02;100378.88;684170;28;23768;-62
2021/08/02 00:23:09;;;;;;;3.28;2.97;;;;;;;16.76;73.03;100371.50;684594;28;22463;-62
2021/08/02 00:23:31;;;;;;;3.33;3.10;;;;;;;16.75;73.14;100378.03;682715;28;70335;-62
2021/08/02 00:23:53;;;;;;;3.97;3.58;;;;;;;16.76;73.14;100377.78;682955;28;67493;-62
2021/08/02 00:24:15;;;;;;;4.32;3.63;;;;;;;16.75;73.11;100369.84;683805;28;46323;-62
2021/08/02 00:24:37;;;;;;;3.60;3.30;;;;;;;16.77;73.24;100375.91;683230;28;44451;-62
2021/08/02 00:24:58;;;;;;;4.60;3.42;;;;;;;16.78;73.01;100379.47;684687;28;17511;-62
2021/08/02 00:25:19;;;;;;;4.00;3.50;;;;;;;16.76;73.07;100382.44;684424;28;21333;-62
2021/08/02 00:25:41;;;;;;;4.05;3.50;;;;;;;16.76;72.99;100375.06;684698;28;19848;-62
2021/08/02 00:26:04;;;;;;;3.65;3.20;;;;;;;16.76;73.02;100377.78;682861;28;64002;-62
2021/08/02 00:26:25;;;;;;;3.40;3.20;;;;;;;16.76;73.05;100372.34;683529;28;44718;-62
2021/08/02 00:26:47;;;;;;;3.70;3.40;;;;;;;16.77;73.08;100378.66;684680;28;23409;-62
2021/08/02 00:27:09;;;;;;;4.50;3.20;;;;;;;16.76;73.23;100375.06;683182;28;69435;-62
2021/08/02 00:27:32;;;;;;;6.20;3.50;;;;;;;16.76;73.17;100375.06;684484;28;22395;-62
2021/08/02 00:27:54;;;;;;;5.57;3.50;;;;;;;16.77;72.94;100384.09;682871;28;68338;-62
2021/08/02 00:28:16;;;;;;;3.80;3.50;;;;;;;16.77;73.21;100378.66;684270;28;34560;-62
2021/08/02 00:28:37;;;;;;;3.78;3.47;;;;;;;16.76;73.14;100380.53;683528;28;46780;-62
2021/08/02 00:28:59;;;;;;;3.95;3.50;;;;;;;16.76;73.15;100374.25;687408;28;18111;-62
2021/08/02 00:29:21;;;;;;;3.65;3.35;;;;;;;16.78;73.10;100380.28;687573;28;1569;-62
2021/08/02 00:29:42;;;;;;;3.50;3.25;;;;;;;16.78;72.94;100380.28;685522;28;31548;-62
2021/08/02 00:30:08;;;;;;;3.58;3.35;;;;;;;16.78;72.83;100382.19;685337;28;15325;-62
2021/08/02 00:30:30;;;;;;;3.60;3.30;;;;;;;16.76;72.52;100380.53;681723;28;106553;-62
2021/08/02 00:30:52;;;;;;;3.70;3.40;;;;;;;16.78;72.98;100376.75;683421;28;46378;-62
2021/08/02 00:31:13;;;;;;;4.28;3.13;;;;;;;16.75;72.94;100375.28;683482;28;23702;-62
2021/08/02 00:31:35;;;;;;;3.33;3.10;;;;;;;16.74;72.75;100379.94;684515;28;21565;-62
2021/08/02 00:31:56;;;;;;;3.72;3.42;;;;;;;16.73;72.98;100385.59;683950;28;44375;-62
2021/08/02 00:32:17;;;;;;;3.83;3.25;;;;;;;16.74;72.72;100381.81;685106;28;22372;-62
2021/08/02 00:32:39;;;;;;;4.40;3.65;;;;;;;16.72;72.83;100381.19;684142;28;38432;-62
2021/08/02 00:33:01;;;;;;;4.00;3.60;;;;;;;16.73;72.69;100385.59;683190;28;47421;-62
2021/08/02 00:33:22;;;;;;;5.00;3.60;;;;;;;16.72;72.99;100379.31;685015;28;5961;-61
2021/08/02 00:33:43;;;;;;;7.90;3.53;;;;;;;16.72;72.86;100381.19;683922;28;44174;-62
2021/08/02 00:34:05;;;;;;;5.43;3.70;;;;;;;16.72;72.86;100383.94;684749;28;18155;-62
2021/08/02 00:34:27;;;;;;;4.00;3.63;;;;;;;16.71;73.06;100376.81;683955;28;46126;-62
2021/08/02 00:34:48;;;;;;;4.45;3.72;;;;;;;16.70;72.89;100384.16;687257;28;15675;-62
2021/08/02 00:35:09;;;;;;;4.03;3.60;;;;;;;16.69;73.18;100384.38;687218;28;6779;-62
2021/08/02 00:35:32;;;;;;;5.55;3.50;;;;;;;16.69;72.88;100376.19;686487;28;23401;-62
2021/08/02 00:35:58;;;;;;;3.90;3.50;;;;;;;16.69;73.06;100377.06;684670;28;68612;-62
2021/08/02 00:36:24;;;;;;;3.55;3.33;;;;;;;16.67;72.89;100378.31;682728;28;138234;-61
2021/08/02 00:36:50;;;;;;;3.60;3.40;;;;;;;16.68;73.11;100385.47;681129;28;138123;-62
2021/08/02 00:37:18;;;;;;;3.70;3.40;;;;;;;16.67;72.85;100378.31;678299;28;138942;-61
2021/08/02 00:37:45;;;;;;;3.90;3.50;;;;;;;16.66;72.97;100380.22;679632;28;131126;-62
2021/08/02 00:38:08;;;;;;;3.60;3.30;;;;;;;16.68;73.07;100382.72;678098;28;162053;-62
2021/08/02 00:38:34;;;;;;;4.32;3.53;;;;;;;16.64;72.81;100371.41;681187;28;69184;-62
2021/08/02 00:39:03;;;;;;;4.00;3.70;;;;;;;16.64;73.09;100385.06;679813;28;128239;-62
2021/08/02 00:39:30;;;;;;;5.25;3.50;;;;;;;16.64;72.79;100384.22;680386;28;128418;-62
2021/08/02 00:39:56;;;;;;;4.10;3.70;;;;;;;16.63;73.05;100374.38;680591;28;130805;-62
2021/08/02 00:40:42;;;;;;;3.70;3.40;;;;;;;16.63;73.00;100385.28;679523;28;157782;-62
2021/08/02 00:41:13;;;;;;;3.83;3.50;;;;;;;16.63;72.97;100382.56;680083;28;138395;-61
2021/08/02 00:42:10;;;;;;;3.95;3.65;;;;;;;16.62;73.07;100378.19;678954;28;138107;-62
2021/08/02 00:42:53;;;;;;;3.88;3.55;;;;;;;16.60;73.01;100383.00;674064;28;135994;-62
2021/08/02 00:43:38;;;;;;;4.97;3.67;;;;;;;16.61;73.14;100384.69;673518;29;137513;-62
2021/08/02 00:44:32;;;;;;;4.75;3.50;;;;;;;16.58;72.88;100381.34;679801;28;136933;-62
2021/08/02 00:45:07;;;;;;;4.43;3.60;;;;;;;16.58;73.02;100375.06;680681;28;134112;-62
2021/08/02 00:45:30;;;;;;;3.80;3.50;;;;;;;16.59;72.92;100384.91;682364;28;136019;-62
2021/08/02 00:45:52;;;;;;;4.03;3.72;;;;;;;16.58;73.09;100380.50;685087;28;66829;-62
2021/08/02 00:46:14;;;;;;;4.00;3.70;;;;;;;16.58;73.16;100380.50;686023;28;44017;-62
2021/08/02 00:46:39;;;;;;;4.05;3.70;;;;;;;16.58;72.85;100383.22;683753;28;45031;-62
2021/08/02 00:47:03;;;;;;;3.95;3.65;;;;;;;16.56;72.91;100382.63;679655;28;116503;-62
2021/08/02 00:47:29;;;;;;;4.07;3.67;;;;;;;16.56;72.84;100375.28;677255;29;113058;-62
2021/08/02 00:47:54;;;;;;;3.83;3.53;;;;;;;16.58;72.87;100381.34;677643;29;107622;-62
2021/08/02 00:48:17;;;;;;;3.88;3.50;;;;;;;16.55;72.99;100373.63;675592;29;117176;-62
2021/08/02 00:48:47;;;;;;;3.70;3.50;;;;;;;16.55;72.89;100387.25;677837;29;60879;-62
2021/08/02 00:49:13;;;;;;;4.13;3.70;;;;;;;16.55;72.93;100380.94;677781;29;61355;-62
2021/08/02 00:49:36;;;;;;;3.95;3.40;;;;;;;16.55;72.79;100384.53;678098;29;115675;-62
2021/08/02 00:50:03;;;;;;;3.90;3.50;;;;;;;16.55;73.07;100381.81;677878;29;56063;-62
2021/08/02 00:50:27;;;;;;;3.75;3.45;;;;;;;16.55;72.94;100381.81;676311;28;179583;-62
2021/08/02 00:50:50;;;;;;;3.90;3.60;;;;;;;16.55;72.93;100381.81;681558;28;92311;-62
2021/08/02 00:51:11;;;;;;;3.80;3.50;;;;;;;16.54;73.08;100382.03;682077;28;69567;-63
2021/08/02 00:51:35;;;;;;;3.63;3.40;;;;;;;16.53;72.96;100377.63;679938;29;30046;-62
2021/08/02 00:51:57;;;;;;;3.70;3.40;;;;;;;16.51;73.27;100386.03;680363;28;92160;-65
2021/08/02 00:52:21;;;;;;;3.42;3.22;;;;;;;16.52;73.31;100375.94;681049;28;69643;-62
2021/08/02 00:52:48;;;;;;;3.53;3.30;;;;;;;16.52;73.21;100381.41;680566;28;81974;-62
2021/08/02 00:53:12;;;;;;;4.88;3.35;;;;;;;16.50;73.21;100381.63;680906;28;85023;-62
2021/08/02 00:53:37;;;;;;;4.00;3.60;;;;;;;16.49;73.35;100379.97;683894;28;92258;-62
2021/08/02 00:53:59;;;;;;;4.15;3.60;;;;;;;16.49;73.08;100384.56;682157;28;92296;-62
2021/08/02 00:54:25;;;;;;;4.88;3.70;;;;;;;16.50;73.43;100386.25;684347;28;37412;-62
2021/08/02 00:54:48;;;;;;;5.78;4.18;;;;;;;16.49;73.24;100379.97;682940;28;64608;-61
2021/08/02 00:55:09;;;;;;;6.07;3.90;;;;;;;16.50;73.46;100375.34;680168;29;68359;-62
2021/08/02 00:55:34;;;;;;;5.25;3.95;;;;;;;16.50;73.30;100384.34;680548;29;45274;-61
2021/08/02 00:56:00;;;;;;;4.10;3.70;;;;;;;16.50;73.46;100375.34;679389;29;61785;-62
2021/08/02 00:56:22;;;;;;;4.85;4.10;;;;;;;16.51;73.48;100377.03;680712;29;38681;-62
2021/08/02 00:56:43;;;;;;;4.28;3.90;;;;;;;16.51;73.43;100377.84;682001;28;23461;-62
2021/08/02 00:57:05;;;;;;;5.03;4.47;;;;;;;16.52;73.68;100378.69;682088;28;25705;-62
2021/08/02 00:57:30;;;;;;;4.82;4.32;;;;;;;16.53;73.34;100385.81;680261;29;1446;-62
2021/08/02 00:57:55;;;;;;;4.13;3.83;;;;;;;16.55;73.22;100386.41;675811;29;134075;-61
2021/08/02 00:58:18;;;;;;;4.15;3.85;;;;;;;16.54;73.43;100384.75;674618;29;69423;-62
2021/08/02 00:58:40;;;;;;;4.47;3.80;;;;;;;16.54;73.22;100382.84;675645;29;93157;-62
2021/08/02 00:59:06;;;;;;;5.60;4.20;;;;;;;16.55;73.15;100384.53;680305;29;1615;-61
2021/08/02 00:59:28;;;;;;;4.30;3.90;;;;;;;16.55;73.30;100381.81;679999;28;93102;-62
2021/08/02 00:59:51;;;;;;;5.07;4.50;;;;;;;16.55;73.26;100379.09;682056;28;37345;-62
2021/08/02 01:00:14;;;;;;;4.65;4.20;;;;;;;16.57;73.32;100385.13;679398;28;65146;-62
2021/08/02 01:00:40;;;;;;;4.07;3.75;;;;;;;16.58;73.21;100391.41;680222;28;129320;-62
2021/08/02 01:01:02;;;;;;;3.83;3.60;;;;;;;16.58;73.13;100389.53;683416;28;41990;-62
2021/08/02 01:01:24;;;;;;;3.88;3.58;;;;;;;16.58;73.27;100391.41;683352;28;43697;-62
2021/08/02 01:01:45;;;;;;;4.03;3.72;;;;;;;16.57;73.21;100379.69;682993;28;36013;-61
2021/08/02 01:02:08;;;;;;;3.75;3.53;;;;;;;16.57;72.89;100387.84;681879;28;70155;-62
2021/08/02 01:02:37;;;;;;;5.85;4.55;;;;;;;16.58;73.03;100391.41;681033;28;45505;-62
2021/08/02 01:03:03;;;;;;;6.40;5.80;;;;;;;16.58;73.08;100391.41;677308;29;134421;-62
2021/08/02 01:03:25;;;;;;;23.52;13.68;;;;;;;16.59;72.99;100393.09;677942;28;137455;-62
2021/08/02 01:03:46;;;;;;;26.20;13.95;;;;;;;16.58;72.95;100392.25;683150;28;46248;-62
2021/08/02 01:04:09;;;;;;;11.52;6.95;;;;;;;16.57;72.93;100390.59;685226;28;45254;-62
2021/08/02 01:04:32;;;;;;;6.75;4.95;;;;;;;16.57;72.85;100393.31;687278;28;69495;-62
2021/08/02 01:04:54;;;;;;;5.05;4.47;;;;;;;16.56;72.94;100385.34;686396;28;46398;-62
2021/08/02 01:05:16;;;;;;;4.95;4.00;;;;;;;16.56;72.75;100382.63;685818;28;45342;-62
2021/08/02 01:05:39;;;;;;;4.30;3.90;;;;;;;16.57;72.89;100389.75;686650;28;22432;-61
2021/08/02 01:06:02;;;;;;;3.83;3.53;;;;;;;16.56;72.83;100388.09;683815;28;114227;-61
2021/08/02 01:06:28;;;;;;;3.65;3.35;;;;;;;16.56;72.89;100388.09;685811;28;46358;-62
2021/08/02 01:06:52;;;;;;;3.85;3.55;;;;;;;16.56;72.72;100394.34;684194;28;161809;-61
2021/08/02 01:07:17;;;;;;;4.22;3.60;;;;;;;16.56;72.80;100390.81;684928;28;81720;-62
2021/08/02 01:07:44;;;;;;;3.67;3.40;;;;;;;16.57;72.76;100397.94;684367;28;91986;-62
2021/08/02 01:08:08;;;;;;;3.42;3.22;;;;;;;16.57;72.85;100392.50;682046;28;160817;-61
2021/08/02 01:08:32;;;;;;;3.63;3.33;;;;;;;16.55;73.02;100392.72;684619;28;70213;-62
2021/08/02 01:09:01;;;;;;;4.22;3.92;;;;;;;16.56;72.80;100388.91;681222;28;111966;-62
2021/08/02 01:09:24;;;;;;;4.03;3.63;;;;;;;16.56;72.91;100390.81;683958;28;60510;-62
2021/08/02 01:09:46;;;;;;;3.80;3.38;;;;;;;16.55;72.74;100398.16;682848;28;91879;-62
2021/08/02 01:10:11;;;;;;;3.80;3.50;;;;;;;16.55;72.74;100400.03;682267;28;69523;-62
2021/08/02 01:10:35;;;;;;;3.60;3.30;;;;;;;16.53;72.95;100400.25;676893;29;67337;-62
2021/08/02 01:11:01;;;;;;;3.72;3.42;;;;;;;16.54;72.82;100395.66;674762;29;137763;-61
2021/08/02 01:11:23;;;;;;;4.03;3.63;;;;;;;16.52;73.02;100395.88;676412;29;68179;-62
2021/08/02 01:11:45;;;;;;;3.78;3.47;;;;;;;16.52;73.19;100390.44;679364;29;70209;-62
2021/08/02 01:12:10;;;;;;;3.75;3.47;;;;;;;16.51;73.10;100390.66;681681;28;69525;-62
2021/08/02 01:12:32;;;;;;;3.60;3.33;;;;;;;16.51;72.94;100399.66;680901;28;115082;-62
2021/08/02 01:12:55;;;;;;;3.60;3.30;;;;;;;16.52;73.08;100395.88;683396;28;46474;-62
2021/08/02 01:13:17;;;;;;;3.72;3.42;;;;;;;16.51;73.10;100396.09;682477;28;69217;-62
2021/08/02 01:13:40;;;;;;;3.80;3.50;;;;;;;16.53;73.08;100397.53;686778;28;21539;-62
2021/08/02 01:14:04;;;;;;;3.60;3.30;;;;;;;16.52;73.18;100400.47;680729;28;87968;-62
2021/08/02 01:14:53;;;;;;;4.05;3.58;;;;;;;16.51;72.88;100399.66;681430;28;61260;-62
2021/08/02 01:15:17;;;;;;;3.88;3.45;;;;;;;16.50;72.87;100395.25;683029;28;15019;-62
2021/08/02 01:15:40;;;;;;;3.65;3.35;;;;;;;16.52;73.04;100397.75;676997;29;38858;-61
2021/08/02 01:16:06;;;;;;;3.90;3.60;;;;;;;16.52;73.12;100401.34;678648;29;93084;-62
2021/08/02 01:16:32;;;;;;;3.75;3.40;;;;;;;16.52;72.92;100395.88;674927;29;129240;-62
2021/08/02 01:16:53;;;;;;;6.28;3.65;;;;;;;16.53;72.95;100404.88;677366;29;63976;-61
2021/08/02 01:17:15;;;;;;;7.03;3.70;;;;;;;16.53;73.08;100400.25;680974;29;34460;-62
2021/08/02 01:17:38;;;;;;;4.40;3.50;;;;;;;16.54;73.14;100406.56;679451;29;69438;-62
2021/08/02 01:18:02;;;;;;;3.53;3.33;;;;;;;16.53;73.10;100402.16;676993;29;69295;-62
2021/08/02 01:18:26;;;;;;;3.85;3.45;;;;;;;16.53;73.15;100405.72;678003;28;116072;-62
2021/08/02 01:18:48;;;;;;;3.60;3.30;;;;;;;16.54;73.10;100407.38;680722;29;45243;-62
2021/08/02 01:19:11;;;;;;;4.00;3.60;;;;;;;16.53;73.00;100402.97;681041;28;46567;-62
2021/08/02 01:19:36;;;;;;;3.65;3.35;;;;;;;16.53;72.93;100402.97;680791;28;85765;-62
2021/08/02 01:19:58;;;;;;;4.05;3.70;;;;;;;16.53;73.04;100408.44;681470;28;67269;-62
2021/08/02 01:20:20;;;;;;;4.15;3.75;;;;;;;16.53;73.20;100407.63;679795;28;57806;-62
2021/08/02 01:20:45;;;;;;;4.57;3.80;;;;;;;16.53;73.20;100407.63;681917;28;46156;-62
2021/08/02 01:21:09;;;;;;;4.18;3.50;;;;;;;16.53;73.18;100408.44;678977;28;138127;-62
2021/08/02 01:21:34;;;;;;;3.60;3.40;;;;;;;16.53;72.97;100405.72;680645;28;92423;-62
2021/08/02 01:21:58;;;;;;;3.60;3.35;;;;;;;16.54;72.90;100409.28;681477;28;74363;-62
2021/08/02 01:22:26;;;;;;;3.63;3.42;;;;;;;16.54;73.07;100412.03;682841;28;65259;-62
2021/08/02 01:22:49;;;;;;;3.50;3.30;;;;;;;16.55;72.88;100410.94;682972;28;137801;-62
2021/08/02 01:23:14;;;;;;;3.90;3.60;;;;;;;16.55;72.92;100406.34;684217;28;92332;-62
2021/08/02 01:23:36;;;;;;;5.20;3.72;;;;;;;16.56;72.94;100409.88;685125;28;69391;-62
2021/08/02 01:23:59;;;;;;;3.80;3.50;;;;;;;16.54;73.03;100414.75;682903;28;69484;-62
2021/08/02 01:24:21;;;;;;;3.90;3.60;;;;;;;16.54;73.07;100414.75;682750;28;67257;-62
2021/08/02 01:24:44;;;;;;;4.95;3.80;;;;;;;16.54;72.94;100412.03;682245;28;67404;-62
2021/08/02 01:25:58;;;;;;;4.90;3.95;;;;;;;16.52;73.14;100411.38;680543;29;46294;-61
2021/08/02 01:27:09;;;;;;;3.75;3.45;;;;;;;16.50;72.92;100417.06;680133;28;137671;-62
2021/08/02 01:27:46;;;;;;;3.90;3.60;;;;;;;16.52;73.27;100417.69;679516;28;159856;-62
2021/08/02 01:28:46;;;;;;;3.70;3.40;;;;;;;16.50;73.32;100408.06;681297;28;125168;-62
2021/08/02 01:30:00;;;;;;;3.80;3.50;;;;;;;16.49;73.31;100420.00;680740;28;137318;-62
2021/08/02 01:30:25;;;;;;;4.13;3.83;;;;;;;16.49;73.22;100420.00;673469;29;138383;-62
2021/08/02 01:30:53;;;;;;;3.80;3.47;;;;;;;16.49;73.49;100422.75;673719;29;132314;-61
2021/08/02 01:31:17;;;;;;;4.30;3.90;;;;;;;16.50;73.62;100411.63;672562;29;130455;-62
2021/08/02 01:31:43;;;;;;;5.07;3.72;;;;;;;16.50;73.41;100408.88;674039;29;111827;-62
2021/08/02 01:32:05;;;;;;;4.10;3.70;;;;;;;16.51;73.37;100417.91;676262;29;46765;-62
2021/08/02 01:32:26;;;;;;;3.90;3.55;;;;;;;16.52;73.51;100411.38;677372;29;22398;-61
2021/08/02 01:32:54;;;;;;;4.35;3.80;;;;;;;16.51;73.54;100412.47;673575;29;118538;-62
2021/08/02 01:33:19;;;;;;;4.85;3.67;;;;;;;16.50;73.37;100417.06;677033;29;21561;-61
2021/08/02 01:33:43;;;;;;;4.78;3.85;;;;;;;16.50;73.27;100417.06;674102;29;120432;-62
2021/08/02 01:34:08;;;;;;;4.10;3.72;;;;;;;16.50;73.49;100411.63;672366;29;96786;-62
2021/08/02 01:34:30;;;;;;;5.80;4.00;;;;;;;16.51;73.30;100407.84;673989;29;42687;-62
2021/08/02 01:35:00;;;;;;;4.22;3.90;;;;;;;16.52;73.28;100411.38;674887;29;59933;-61
2021/08/02 01:35:23;;;;;;;4.10;3.80;;;;;;;16.52;73.48;100412.25;676418;29;12096;-62
2021/08/02 01:35:46;;;;;;;3.97;3.63;;;;;;;16.51;73.49;100416.00;671126;29;90507;-60
2021/08/02 01:36:10;;;;;;;4.05;3.72;;;;;;;16.49;73.34;100409.97;670765;29;92558;-62
2021/08/02 01:36:50;;;;;;;4.60;3.90;;;;;;;16.48;73.58;100421.91;677339;29;138422;-62
2021/08/02 01:37:14;;;;;;;4.30;3.97;;;;;;;16.48;73.59;100415.63;680993;29;38944;-62
2021/08/02 01:37:37;;;;;;;4.40;4.00;;;;;;;16.48;73.42;100426.53;679874;29;22408;-61
2021/08/02 01:38:01;;;;;;;4.30;3.55;;;;;;;16.48;73.52;100421.91;677400;29;90119;-62
2021/08/02 01:38:26;;;;;;;3.85;3.55;;;;;;;16.46;73.41;100409.59;677834;29;52992;-62
2021/08/02 01:38:48;;;;;;;4.28;3.88;;;;;;;16.46;73.42;100413.13;673683;29;114118;-62
2021/08/02 01:39:13;;;;;;;4.22;3.83;;;;;;;16.47;73.65;100414.78;673640;29;100375;-62
2021/08/02 01:39:34;;;;;;;4.00;3.60;;;;;;;16.45;73.56;100414.19;678119;29;19978;-62
2021/08/02 01:39:56;;;;;;;4.20;3.90;;;;;;;16.45;73.54;100414.19;677216;29;46328;-62
2021/08/02 01:40:21;;;;;;;4.80;4.15;;;;;;;16.45;73.53;100416.91;677397;28;107529;-62
2021/08/02 01:40:42;;;;;;;4.45;3.90;;;;;;;16.46;73.51;100420.50;684257;28;67585;-62
2021/08/02 01:41:06;;;;;;;4.13;3.75;;;;;;;16.45;73.85;100416.91;683160;28;42539;-62
2021/08/02 01:41:30;;;;;;;4.30;3.90;;;;;;;16.46;73.75;100421.31;677653;29;129233;-61
2021/08/02 01:41:54;;;;;;;4.05;3.75;;;;;;;16.46;73.89;100423.22;683499;28;1665;-62
2021/08/02 01:42:15;;;;;;;4.22;3.83;;;;;;;16.46;73.70;100417.75;681102;28;46399;-62
2021/08/02 01:42:39;;;;;;;5.63;3.78;;;;;;;16.44;74.07;100415.25;681812;29;3022;-62
2021/08/02 01:43:03;;;;;;;3.80;3.50;;;;;;;16.44;73.75;100419.84;680382;28;92427;-62
2021/08/02 01:43:24;;;;;;;4.90;3.50;;;;;;;16.44;73.84;100417.13;683059;28;46378;-61
2021/08/02 01:43:47;;;;;;;4.15;3.85;;;;;;;16.45;73.82;100418.81;684574;28;44374;-62
2021/08/02 01:44:08;;;;;;;4.90;4.00;;;;;;;16.42;73.74;100416.53;686844;28;45420;-62
2021/08/02 01:44:30;;;;;;;4.50;4.10;;;;;;;16.44;73.79;100418.00;688183;28;46425;-62
2021/08/02 01:44:52;;;;;;;4.50;4.00;;;;;;;16.43;73.76;100415.50;685960;28;46330;-61
2021/08/02 01:45:18;;;;;;;4.05;3.67;;;;;;;16.43;73.77;100418.22;681613;28;98258;-62
2021/08/02 01:45:46;;;;;;;4.05;3.75;;;;;;;16.44;74.01;100419.84;680558;29;46413;-62
2021/08/02 01:46:17;;;;;;;4.10;3.80;;;;;;;16.44;74.00;100422.59;676658;28;160551;-62
2021/08/02 01:46:43;;;;;;;4.10;3.80;;;;;;;16.41;74.09;100410.25;678266;28;136200;-62
2021/08/02 01:47:09;;;;;;;4.28;3.92;;;;;;;16.42;74.10;100414.63;677853;28;136454;-62
2021/08/02 01:47:49;;;;;;;5.82;3.67;;;;;;;16.43;73.75;100415.50;679972;28;137922;-60
2021/08/02 01:48:15;;;;;;;4.22;3.92;;;;;;;16.43;74.09;100410.03;680965;28;137592;-61
2021/08/02 01:48:42;;;;;;;4.25;3.95;;;;;;;16.43;74.09;100412.75;681963;28;136532;-62
2021/08/02 01:49:09;;;;;;;4.38;3.92;;;;;;;16.43;74.08;100410.84;682301;28;138728;-62
2021/08/02 01:49:35;;;;;;;4.40;4.00;;;;;;;16.43;73.84;100410.84;683277;28;137861;-62
2021/08/02 01:50:02;;;;;;;4.05;3.65;;;;;;;16.43;74.05;100416.31;685932;28;115034;-61
2021/08/02 01:50:43;;;;;;;4.60;3.90;;;;;;;16.43;74.03;100407.31;684835;28;136370;-62
2021/08/02 01:51:09;;;;;;;4.22;3.92;;;;;;;16.43;74.06;100405.41;680356;28;135814;-60
2021/08/02 01:51:36;;;;;;;4.72;3.65;;;;;;;16.44;74.13;100412.53;680610;28;134494;-62
2021/08/02 01:51:58;;;;;;;4.80;4.05;;;;;;;16.43;73.92;100408.13;679371;28;129202;-62
2021/08/02 01:52:34;;;;;;;4.22;3.90;;;;;;;16.45;73.92;100414.19;686996;28;60594;-62
2021/08/02 01:53:02;;;;;;;4.20;3.90;;;;;;;16.45;73.97;100413.38;683186;28;135698;-61
2021/08/02 01:53:25;;;;;;;4.00;3.70;;;;;;;16.46;73.89;100415.03;683113;28;161149;-62
2021/08/02 01:53:55;;;;;;;4.47;4.07;;;;;;;16.45;74.02;100411.47;679172;28;126338;-62
2021/08/02 01:54:27;;;;;;;4.22;3.88;;;;;;;16.46;74.18;100417.75;679461;28;138009;-62
2021/08/02 01:54:52;;;;;;;4.32;3.90;;;;;;;16.47;73.97;100420.22;680718;28;128348;-61
2021/08/02 01:55:17;;;;;;;4.40;4.00;;;;;;;16.48;73.95;100419.19;678266;29;80768;-62
2021/08/02 01:55:38;;;;;;;4.20;3.90;;;;;;;16.49;74.05;100412.69;678143;28;113453;-62
2021/08/02 01:56:03;;;;;;;4.47;3.70;;;;;;;16.50;73.95;100413.50;682666;28;22509;-62
2021/08/02 01:56:30;;;;;;;4.35;3.95;;;;;;;16.48;73.91;100411.00;678643;28;137998;-61
2021/08/02 01:56:59;;;;;;;3.97;3.67;;;;;;;16.49;74.01;100418.13;678959;28;136366;-61
2021/08/02 01:57:28;;;;;;;4.68;4.28;;;;;;;16.49;74.09;100412.69;682773;28;137541;-62
2021/08/02 01:57:56;;;;;;;4.35;3.95;;;;;;;16.50;73.75;100416.25;676707;28;122631;-62
2021/08/02 01:58:52;;;;;;;4.43;4.03;;;;;;;16.50;73.91;100416.25;676107;28;158919;-62
2021/08/02 01:59:35;;;;;;;4.22;3.90;;;;;;;16.48;74.03;100418.38;678877;28;138420;-61
2021/08/02 02:00:01;;;;;;;4.00;3.70;;;;;;;16.48;74.01;100424.63;685266;28;138018;-62